Time,TemperatureF,DewpointF,PressureIn,WindDirection,WindDirectionDegrees,WindSpeedMPH,WindSpeedGustMPH,Humidity,HourlyPrecipIn,Conditions,Clouds,dailyrainin,SolarRadiationWatts/m^2,SoftwareType,DateUTC
2013-06-29 00:05:00,64.7,60.7,29.78,WSW,250,0.0,0.0,87,0.00,,,0.00,0,Wunderground v.1.15,2013-06-29 07:05:00,
2013-06-29 00:11:00,64.5,60.5,29.78,WSW,250,0.0,0.0,87,0.00,,,0.00,0,Wunderground v.1.15,2013-06-29 07:11:00,
2013-06-29 00:17:00,64.5,60.5,29.78,WSW,250,0.0,0.0,87,0.00,,,0.00,0,Wunderground v.1.15,2013-06-29 07:17:00,
2013-06-29 00:23:00,64.3,60.3,29.78,WSW,250,0.0,0.0,87,0.00,,,0.00,0,Wunderground v.1.15,2013-06-29 07:23:00,
2013-06-29 00:29:00,64.2,60.2,29.78,WSW,250,0.0,0.0,87,0.00,,,0.00,0,Wunderground v.1.15,2013-06-29 07:29:00,
2013-06-29 00:34:00,64.0,60.1,29.78,WSW,250,0.0,0.0,87,0.00,,,0.00,0,Wunderground v.1.15,2013-06-29 07:34:00,
2013-06-29 00:40:00,64.0,60.4,29.78,WSW,250,0.0,0.0,88,0.00,,,0.00,0,Wunderground v.1.15,2013-06-29 07:40:00,
2013-06-29 00:46:00,63.9,60.3,29.78,WSW,250,0.0,0.0,88,0.00,,,0.00,0,Wunderground v.1.15,2013-06-29 07:46:00,
2013-06-29 00:52:00,63.9,60.3,29.78,WSW,251,0.0,0.0,88,0.00,,,0.00,0,Wunderground v.1.15,2013-06-29 07:52:00,
2013-06-29 00:57:00,63.7,60.1,29.78,WSW,250,0.0,0.0,88,0.00,,,0.00,0,Wunderground v.1.15,2013-06-29 07:57:00,
2013-06-29 01:03:00,63.5,59.9,29.77,WSW,250,0.0,0.0,88,0.00,,,0.00,0,Wunderground v.1.15,2013-06-29 08:03:00,
2013-06-29 01:09:00,63.4,59.8,29.77,WSW,250,0.0,0.0,88,0.00,,,0.00,0,Wunderground v.1.15,2013-06-29 08:09:00,
2013-06-29 01:15:00,63.4,59.8,29.77,WSW,250,0.0,0.0,88,0.00,,,0.00,0,Wunderground v.1.15,2013-06-29 08:15:00,
2013-06-29 01:20:00,63.2,59.6,29.77,WSW,250,0.0,0.0,88,0.00,,,0.00,0,Wunderground v.1.15,2013-06-29 08:20:00,
2013-06-29 01:26:00,63.1,59.5,29.77,WSW,251,0.0,0.0,88,0.00,,,0.00,0,Wunderground v.1.15,2013-06-29 08:26:00,
2013-06-29 01:32:00,63.1,59.5,29.77,WSW,250,0.0,0.0,88,0.00,,,0.00,0,Wunderground v.1.15,2013-06-29 08:32:00,
2013-06-29 01:38:00,62.9,59.3,29.77,WSW,250,0.0,0.0,88,0.00,,,0.00,0,Wunderground v.1.15,2013-06-29 08:38:00,
2013-06-29 01:44:00,62.7,59.1,29.77,WSW,250,0.0,0.0,88,0.00,,,0.00,0,Wunderground v.1.15,2013-06-29 08:44:00,
2013-06-29 01:49:00,62.7,59.1,29.77,WSW,250,0.0,0.0,88,0.00,,,0.00,0,Wunderground v.1.15,2013-06-29 08:49:00,
2013-06-29 01:55:00,62.6,59.0,29.77,WSW,250,0.0,0.0,88,0.00,,,0.00,0,Wunderground v.1.15,2013-06-29 08:55:00,
2013-06-29 02:00:00,62.6,59.0,29.77,WSW,250,0.0,0.0,88,0.00,,,0.00,0,Wunderground v.1.15,2013-06-29 09:00:00,
2013-06-29 02:06:00,62.4,58.8,29.76,WSW,250,0.0,0.0,88,0.00,,,0.00,0,Wunderground v.1.15,2013-06-29 09:06:00,
2013-06-29 02:12:00,62.4,59.1,29.76,WSW,250,0.0,0.0,89,0.00,,,0.00,0,Wunderground v.1.15,2013-06-29 09:12:00,
2013-06-29 02:17:00,62.3,59.0,29.76,WSW,250,0.0,0.0,89,0.00,,,0.00,0,Wunderground v.1.15,2013-06-29 09:17:00,
2013-06-29 02:23:00,62.1,58.8,29.76,WSW,250,0.0,0.0,89,0.00,,,0.00,0,Wunderground v.1.15,2013-06-29 09:23:00,
2013-06-29 02:28:00,62.1,58.8,29.76,WSW,250,0.0,0.0,89,0.00,,,0.00,0,Wunderground v.1.15,2013-06-29 09:28:00,
2013-06-29 02:34:00,62.0,58.7,29.75,WSW,251,0.0,0.0,89,0.00,,,0.00,0,Wunderground v.1.15,2013-06-29 09:34:00,
2013-06-29 02:40:00,62.0,58.7,29.75,WSW,250,0.0,0.0,89,0.00,,,0.00,0,Wunderground v.1.15,2013-06-29 09:40:00,
2013-06-29 02:45:00,61.8,58.5,29.75,WSW,250,0.0,0.0,89,0.00,,,0.00,0,Wunderground v.1.15,2013-06-29 09:45:00,
2013-06-29 02:51:00,61.6,58.3,29.75,WSW,250,0.0,0.0,89,0.00,,,0.00,0,Wunderground v.1.15,2013-06-29 09:51:00,
2013-06-29 02:56:00,61.6,58.3,29.75,WSW,250,0.0,0.0,89,0.00,,,0.00,0,Wunderground v.1.15,2013-06-29 09:56:00,
2013-06-29 03:02:00,61.5,58.2,29.75,WSW,251,0.0,0.0,89,0.00,,,0.00,0,Wunderground v.1.15,2013-06-29 10:02:00,
2013-06-29 03:07:00,61.5,58.2,29.75,WSW,250,0.0,0.0,89,0.00,,,0.00,0,Wunderground v.1.15,2013-06-29 10:07:00,
2013-06-29 03:13:00,61.3,58.0,29.75,WSW,250,0.0,0.0,89,0.00,,,0.00,0,Wunderground v.1.15,2013-06-29 10:13:00,
2013-06-29 03:19:00,61.3,58.3,29.75,WSW,251,0.0,0.0,90,0.00,,,0.00,0,Wunderground v.1.15,2013-06-29 10:19:00,
2013-06-29 03:25:00,61.3,58.3,29.75,WSW,250,0.0,0.0,90,0.00,,,0.00,0,Wunderground v.1.15,2013-06-29 10:25:00,
2013-06-29 03:31:00,61.2,58.2,29.75,WSW,250,0.0,0.0,90,0.00,,,0.00,0,Wunderground v.1.15,2013-06-29 10:31:00,
2013-06-29 03:36:00,61.0,58.0,29.75,WSW,250,0.0,0.0,90,0.00,,,0.00,0,Wunderground v.1.15,2013-06-29 10:36:00,
2013-06-29 03:42:00,61.0,58.0,29.75,WSW,251,0.0,0.0,90,0.00,,,0.00,0,Wunderground v.1.15,2013-06-29 10:42:00,
2013-06-29 03:48:00,60.9,57.9,29.75,WSW,250,0.0,0.0,90,0.00,,,0.00,0,Wunderground v.1.15,2013-06-29 10:48:00,
2013-06-29 03:53:00,60.9,57.9,29.75,WSW,251,0.0,0.0,90,0.00,,,0.00,0,Wunderground v.1.15,2013-06-29 10:53:00,
2013-06-29 03:59:00,60.7,57.7,29.75,WSW,251,0.0,0.0,90,0.00,,,0.00,0,Wunderground v.1.15,2013-06-29 10:59:00,
2013-06-29 04:05:00,60.7,57.7,29.74,WSW,251,0.0,0.0,90,0.00,,,0.00,0,Wunderground v.1.15,2013-06-29 11:05:00,
2013-06-29 04:11:00,60.5,57.6,29.74,WSW,251,0.0,0.0,90,0.00,,,0.00,0,Wunderground v.1.15,2013-06-29 11:11:00,
2013-06-29 04:16:00,60.5,57.9,29.74,WSW,251,0.0,0.0,91,0.00,,,0.00,0,Wunderground v.1.15,2013-06-29 11:16:00,
2013-06-29 04:22:00,60.5,58.2,29.74,WSW,250,0.0,0.0,92,0.00,,,0.00,0,Wunderground v.1.15,2013-06-29 11:22:00,
2013-06-29 04:28:00,60.5,57.9,29.74,WSW,250,0.0,0.0,91,0.00,,,0.00,0,Wunderground v.1.15,2013-06-29 11:28:00,
2013-06-29 04:34:00,60.5,57.9,29.75,WSW,250,0.0,0.0,91,0.00,,,0.00,0,Wunderground v.1.15,2013-06-29 11:34:00,
2013-06-29 04:39:00,60.4,57.8,29.75,WSW,250,0.0,0.0,91,0.00,,,0.00,0,Wunderground v.1.15,2013-06-29 11:39:00,
2013-06-29 04:45:00,60.4,57.8,29.75,WSW,250,0.0,0.0,91,0.00,,,0.00,0,Wunderground v.1.15,2013-06-29 11:45:00,
2013-06-29 04:51:00,60.4,57.8,29.74,WSW,251,0.0,0.0,91,0.00,,,0.00,0,Wunderground v.1.15,2013-06-29 11:51:00,
2013-06-29 04:57:00,60.2,57.6,29.74,WSW,251,0.0,0.0,91,0.00,,,0.00,0,Wunderground v.1.15,2013-06-29 11:57:00,
2013-06-29 05:03:00,60.1,57.5,29.75,WSW,251,0.0,0.0,91,0.00,,,0.00,0,Wunderground v.1.15,2013-06-29 12:03:00,
2013-06-29 05:09:00,60.1,57.5,29.75,WSW,251,0.0,0.0,91,0.00,,,0.00,0,Wunderground v.1.15,2013-06-29 12:09:00,
2013-06-29 05:15:00,59.9,57.0,29.75,WSW,250,0.0,0.0,90,0.00,,,0.00,0,Wunderground v.1.15,2013-06-29 12:15:00,
2013-06-29 05:20:00,59.9,57.6,29.75,WSW,251,0.0,0.0,92,0.00,,,0.00,0,Wunderground v.1.15,2013-06-29 12:20:00,
2013-06-29 05:26:00,59.9,57.3,29.75,WSW,251,0.0,0.0,91,0.00,,,0.00,0,Wunderground v.1.15,2013-06-29 12:26:00,
2013-06-29 05:32:00,59.9,57.3,29.75,WSW,251,0.0,0.0,91,0.00,,,0.00,0,Wunderground v.1.15,2013-06-29 12:32:00,
2013-06-29 05:38:00,59.9,57.3,29.75,WSW,251,0.0,0.0,91,0.00,,,0.00,0,Wunderground v.1.15,2013-06-29 12:38:00,
2013-06-29 05:44:00,59.9,57.3,29.75,WSW,250,0.0,0.0,91,0.00,,,0.00,0,Wunderground v.1.15,2013-06-29 12:44:00,
2013-06-29 05:49:00,59.9,57.6,29.75,WSW,250,0.0,0.0,92,0.00,,,0.00,5,Wunderground v.1.15,2013-06-29 12:49:00,
2013-06-29 05:55:00,59.8,57.2,29.75,WSW,251,0.0,0.0,91,0.00,,,0.00,7,Wunderground v.1.15,2013-06-29 12:55:00,
2013-06-29 06:01:00,59.8,57.2,29.75,WSW,250,0.0,0.0,91,0.00,,,0.00,14,Wunderground v.1.15,2013-06-29 13:01:00,
2013-06-29 06:06:00,59.8,57.2,29.75,WSW,250,0.0,0.0,91,0.00,,,0.00,21,Wunderground v.1.15,2013-06-29 13:06:00,
2013-06-29 06:12:00,59.6,57.0,29.75,WSW,250,0.0,0.0,91,0.00,,,0.00,32,Wunderground v.1.15,2013-06-29 13:12:00,
2013-06-29 06:18:00,59.8,57.2,29.75,WSW,250,0.0,0.0,91,0.00,,,0.00,42,Wunderground v.1.15,2013-06-29 13:18:00,
2013-06-29 06:24:00,59.9,57.3,29.75,WSW,250,0.0,0.0,91,0.00,,,0.00,53,Wunderground v.1.15,2013-06-29 13:24:00,
2013-06-29 06:30:00,60.1,57.8,29.75,WSW,250,0.0,0.0,92,0.00,,,0.00,65,Wunderground v.1.15,2013-06-29 13:30:00,
2013-06-29 06:35:00,60.4,58.1,29.75,WSW,250,0.0,0.0,92,0.00,,,0.00,76,Wunderground v.1.15,2013-06-29 13:35:00,
2013-06-29 06:41:00,60.7,58.4,29.75,WSW,250,0.0,0.0,92,0.00,,,0.00,86,Wunderground v.1.15,2013-06-29 13:41:00,
2013-06-29 06:47:00,61.0,58.7,29.75,WSW,250,0.0,0.0,92,0.00,,,0.00,100,Wunderground v.1.15,2013-06-29 13:47:00,
2013-06-29 06:53:00,61.5,59.2,29.75,WSW,250,0.0,0.0,92,0.00,,,0.00,118,Wunderground v.1.15,2013-06-29 13:53:00,
2013-06-29 06:59:00,61.8,59.8,29.75,WSW,250,1.0,2.0,93,0.00,,,0.00,134,Wunderground v.1.15,2013-06-29 13:59:00,
2013-06-29 07:05:00,62.1,60.1,29.75,WSW,250,1.0,4.0,93,0.00,,,0.00,148,Wunderground v.1.15,2013-06-29 14:05:00,
2013-06-29 07:11:00,62.3,60.2,29.75,WSW,250,0.0,0.0,93,0.00,,,0.00,164,Wunderground v.1.15,2013-06-29 14:11:00,
2013-06-29 07:16:00,62.6,60.5,29.75,WSW,250,0.0,1.0,93,0.00,,,0.00,176,Wunderground v.1.15,2013-06-29 14:16:00,
2013-06-29 07:21:00,62.9,60.8,29.75,WSW,250,0.0,0.0,93,0.00,,,0.00,192,Wunderground v.1.15,2013-06-29 14:21:00,
2013-06-29 07:27:00,63.2,61.4,29.75,WSW,250,0.0,0.0,94,0.00,,,0.00,209,Wunderground v.1.15,2013-06-29 14:27:00,
2013-06-29 07:32:00,63.5,61.7,29.75,WSW,250,0.0,0.0,94,0.00,,,0.00,225,Wunderground v.1.15,2013-06-29 14:32:00,
2013-06-29 07:38:00,63.9,62.1,29.75,WSW,250,0.0,0.0,94,0.00,,,0.00,245,Wunderground v.1.15,2013-06-29 14:38:00,
2013-06-29 07:44:00,64.2,62.4,29.75,WSW,250,0.0,0.0,94,0.00,,,0.00,266,Wunderground v.1.15,2013-06-29 14:44:00,
2013-06-29 07:50:00,64.7,62.9,29.75,WSW,250,0.0,0.0,94,0.00,,,0.00,285,Wunderground v.1.15,2013-06-29 14:50:00,
2013-06-29 07:56:00,65.2,63.4,29.75,WSW,250,0.0,0.0,94,0.00,,,0.00,303,Wunderground v.1.15,2013-06-29 14:56:00,
2013-06-29 08:02:00,65.6,63.8,29.75,WSW,251,0.0,0.0,94,0.00,,,0.00,318,Wunderground v.1.15,2013-06-29 15:02:00,
2013-06-29 08:07:00,66.1,64.3,29.75,WSW,250,0.0,0.0,94,0.00,,,0.00,333,Wunderground v.1.15,2013-06-29 15:07:00,
2013-06-29 08:12:00,66.4,64.6,29.75,WSW,250,0.0,0.0,94,0.00,,,0.00,347,Wunderground v.1.15,2013-06-29 15:12:00,
2013-06-29 08:17:00,66.9,65.1,29.75,WSW,250,0.0,0.0,94,0.00,,,0.00,357,Wunderground v.1.15,2013-06-29 15:17:00,
2013-06-29 08:23:00,67.4,65.6,29.75,WSW,250,0.0,0.0,94,0.00,,,0.00,378,Wunderground v.1.15,2013-06-29 15:23:00,
2013-06-29 08:29:00,67.9,66.1,29.75,WSW,250,0.0,4.0,94,0.00,,,0.00,399,Wunderground v.1.15,2013-06-29 15:29:00,
2013-06-29 08:34:00,68.3,66.5,29.76,WSW,250,2.0,4.0,94,0.00,,,0.00,424,Wunderground v.1.15,2013-06-29 15:34:00,
2013-06-29 08:40:00,68.6,66.5,29.76,WSW,250,2.0,6.0,93,0.00,,,0.00,442,Wunderground v.1.15,2013-06-29 15:40:00,
2013-06-29 08:46:00,69.1,67.0,29.75,WSW,250,3.0,6.0,93,0.00,,,0.00,459,Wunderground v.1.15,2013-06-29 15:46:00,
2013-06-29 08:52:00,69.4,67.0,29.75,WSW,250,4.0,9.0,92,0.00,,,0.00,473,Wunderground v.1.15,2013-06-29 15:52:00,
2013-06-29 08:58:00,69.9,67.2,29.75,WSW,250,4.0,9.0,91,0.00,,,0.00,489,Wunderground v.1.15,2013-06-29 15:58:00,
2013-06-29 09:04:00,70.4,67.3,29.75,WSW,250,5.0,7.0,90,0.00,,,0.00,503,Wunderground v.1.15,2013-06-29 16:04:00,
2013-06-29 09:10:00,70.9,67.2,29.75,WSW,250,6.0,6.0,88,0.00,,,0.00,516,Wunderground v.1.15,2013-06-29 16:10:00,
2013-06-29 09:16:00,71.5,67.4,29.75,WSW,250,6.0,9.0,87,0.00,,,0.00,535,Wunderground v.1.15,2013-06-29 16:16:00,
2013-06-29 09:22:00,72.3,67.5,29.75,WSW,250,5.0,6.0,85,0.00,,,0.00,554,Wunderground v.1.15,2013-06-29 16:22:00,
2013-06-29 09:28:00,73.0,67.5,29.75,WSW,250,6.0,8.0,83,0.00,,,0.00,568,Wunderground v.1.15,2013-06-29 16:28:00,
2013-06-29 09:33:00,73.5,67.3,29.74,WSW,250,6.0,9.0,81,0.00,,,0.00,582,Wunderground v.1.15,2013-06-29 16:33:00,
2013-06-29 09:39:00,74.4,67.1,29.74,WSW,243,6.0,9.0,78,0.00,,,0.00,596,Wunderground v.1.15,2013-06-29 16:39:00,
2013-06-29 09:44:00,75.1,67.0,29.74,West,263,6.0,9.0,76,0.00,,,0.00,612,Wunderground v.1.15,2013-06-29 16:44:00,
2013-06-29 09:50:00,75.8,66.9,29.73,WSW,253,6.0,7.0,74,0.00,,,0.00,630,Wunderground v.1.15,2013-06-29 16:50:00,
2013-06-29 09:56:00,76.7,67.0,29.73,WSW,246,5.0,8.0,72,0.00,,,0.00,644,Wunderground v.1.15,2013-06-29 16:56:00,
2013-06-29 10:02:00,77.4,66.8,29.73,WSW,243,4.0,6.0,70,0.00,,,0.00,662,Wunderground v.1.15,2013-06-29 17:02:00,
2013-06-29 10:08:00,78.1,66.7,29.73,WSW,241,5.0,6.0,68,0.00,,,0.00,674,Wunderground v.1.15,2013-06-29 17:08:00,
2013-06-29 10:13:00,78.6,65.8,29.73,WSW,247,5.0,9.0,65,0.00,,,0.00,686,Wunderground v.1.15,2013-06-29 17:13:00,
2013-06-29 10:19:00,79.2,66.0,29.72,WSW,253,6.0,9.0,64,0.00,,,0.00,702,Wunderground v.1.15,2013-06-29 17:19:00,
2013-06-29 10:24:00,79.8,65.6,29.72,SW,229,7.0,11.0,62,0.00,,,0.00,713,Wunderground v.1.15,2013-06-29 17:24:00,
2013-06-29 10:30:00,80.5,65.8,29.72,WSW,257,7.0,7.0,61,0.00,,,0.00,718,Wunderground v.1.15,2013-06-29 17:30:00,
2013-06-29 10:35:00,81.1,65.9,29.72,WSW,250,7.0,13.0,60,0.00,,,0.00,721,Wunderground v.1.15,2013-06-29 17:35:00,
2013-06-29 10:42:00,81.6,65.4,29.72,WSW,240,7.0,11.0,58,0.00,,,0.00,737,Wunderground v.1.15,2013-06-29 17:42:00,
2013-06-29 10:47:00,82.2,65.4,29.72,SW,236,8.0,11.0,57,0.00,,,0.00,748,Wunderground v.1.15,2013-06-29 17:47:00,
2013-06-29 10:53:00,82.8,66.0,29.72,SW,236,8.0,10.0,57,0.00,,,0.00,765,Wunderground v.1.15,2013-06-29 17:53:00,
2013-06-29 10:58:00,83.4,65.5,29.72,SW,236,8.0,11.0,55,0.00,,,0.00,774,Wunderground v.1.15,2013-06-29 17:58:00,
2013-06-29 11:03:00,83.6,65.2,29.72,WSW,250,9.0,14.0,54,0.00,,,0.00,779,Wunderground v.1.15,2013-06-29 18:03:00,
2013-06-29 11:08:00,83.8,65.4,29.72,SW,234,9.0,14.0,54,0.00,,,0.00,790,Wunderground v.1.15,2013-06-29 18:08:00,
2013-06-29 11:13:00,84.1,65.7,29.72,WSW,244,9.0,9.0,54,0.00,,,0.00,797,Wunderground v.1.15,2013-06-29 18:13:00,
2013-06-29 11:19:00,84.1,65.1,29.72,WSW,237,9.0,17.0,53,0.00,,,0.00,806,Wunderground v.1.15,2013-06-29 18:19:00,
2013-06-29 11:24:00,84.3,64.8,29.72,WSW,247,9.0,11.0,52,0.00,,,0.00,813,Wunderground v.1.15,2013-06-29 18:24:00,
2013-06-29 11:30:00,84.3,64.8,29.72,WSW,244,9.0,13.0,52,0.00,,,0.00,820,Wunderground v.1.15,2013-06-29 18:30:00,
2013-06-29 11:35:00,84.5,64.9,29.71,SW,224,9.0,9.0,52,0.00,,,0.00,838,Wunderground v.1.15,2013-06-29 18:35:00,
2013-06-29 11:41:00,84.9,64.8,29.71,SW,234,9.0,10.0,51,0.00,,,0.00,832,Wunderground v.1.15,2013-06-29 18:41:00,
2013-06-29 11:47:00,85.3,65.1,29.71,WSW,244,8.0,10.0,51,0.00,,,0.00,839,Wunderground v.1.15,2013-06-29 18:47:00,
2013-06-29 11:52:00,85.7,65.5,29.71,SW,232,7.0,8.0,51,0.00,,,0.00,843,Wunderground v.1.15,2013-06-29 18:52:00,
2013-06-29 11:57:00,85.9,65.1,29.71,SW,236,7.0,8.0,50,0.00,,,0.00,846,Wunderground v.1.15,2013-06-29 18:57:00,
2013-06-29 12:02:00,86.3,64.9,29.71,WSW,256,7.0,11.0,49,0.00,,,0.00,852,Wunderground v.1.15,2013-06-29 19:02:00,
2013-06-29 12:08:00,86.5,65.1,29.71,SW,230,8.0,11.0,49,0.00,,,0.00,857,Wunderground v.1.15,2013-06-29 19:08:00,
2013-06-29 12:14:00,86.3,64.3,29.71,WSW,246,9.0,11.0,48,0.00,,,0.00,860,Wunderground v.1.15,2013-06-29 19:14:00,
2013-06-29 12:19:00,86.3,64.3,29.71,SW,224,9.0,11.0,48,0.00,,,0.00,860,Wunderground v.1.15,2013-06-29 19:19:00,
2013-06-29 12:24:00,86.3,64.3,29.71,WSW,240,9.0,10.0,48,0.00,,,0.00,867,Wunderground v.1.15,2013-06-29 19:24:00,
2013-06-29 12:30:00,86.5,63.9,29.71,WSW,244,9.0,11.0,47,0.00,,,0.00,871,Wunderground v.1.15,2013-06-29 19:30:00,
2013-06-29 12:36:00,86.7,64.1,29.70,WSW,246,9.0,11.0,47,0.00,,,0.00,871,Wunderground v.1.15,2013-06-29 19:36:00,
2013-06-29 12:42:00,87.0,64.3,29.70,SSW,212,9.0,10.0,47,0.00,,,0.00,871,Wunderground v.1.15,2013-06-29 19:42:00,
2013-06-29 12:47:00,87.0,63.7,29.70,WSW,237,9.0,14.0,46,0.00,,,0.00,873,Wunderground v.1.15,2013-06-29 19:47:00,
2013-06-29 12:53:00,87.2,63.9,29.70,WSW,243,10.0,14.0,46,0.00,,,0.00,874,Wunderground v.1.15,2013-06-29 19:53:00,
2013-06-29 12:58:00,87.2,63.9,29.70,SW,216,11.0,16.0,46,0.00,,,0.00,874,Wunderground v.1.15,2013-06-29 19:58:00,
2013-06-29 13:04:00,87.4,64.1,29.70,SW,229,11.0,11.0,46,0.00,,,0.00,873,Wunderground v.1.15,2013-06-29 20:04:00,
2013-06-29 13:09:00,87.4,63.5,29.70,SW,230,11.0,14.0,45,0.00,,,0.00,871,Wunderground v.1.15,2013-06-29 20:09:00,
2013-06-29 13:14:00,87.4,64.1,29.70,WSW,239,10.0,11.0,46,0.00,,,0.00,873,Wunderground v.1.15,2013-06-29 20:14:00,
2013-06-29 13:20:00,87.8,63.8,29.70,SW,234,8.0,8.0,45,0.00,,,0.00,876,Wunderground v.1.15,2013-06-29 20:20:00,
2013-06-29 13:26:00,87.8,63.2,29.70,SW,220,9.0,13.0,44,0.00,,,0.00,876,Wunderground v.1.15,2013-06-29 20:26:00,
2013-06-29 13:31:00,87.8,63.8,29.70,SW,222,10.0,13.0,45,0.00,,,0.00,869,Wunderground v.1.15,2013-06-29 20:31:00,
2013-06-29 13:36:00,88.0,64.0,29.70,SW,217,9.0,13.0,45,0.00,,,0.00,871,Wunderground v.1.15,2013-06-29 20:36:00,
2013-06-29 13:42:00,87.8,63.2,29.70,SW,227,10.0,15.0,44,0.00,,,0.00,864,Wunderground v.1.15,2013-06-29 20:42:00,
2013-06-29 13:47:00,87.8,63.2,29.69,SW,234,11.0,15.0,44,0.00,,,0.00,860,Wunderground v.1.15,2013-06-29 20:47:00,
2013-06-29 13:53:00,88.0,63.4,29.69,West,264,10.0,16.0,44,0.00,,,0.00,857,Wunderground v.1.15,2013-06-29 20:53:00,
2013-06-29 13:59:00,88.0,64.0,29.69,SW,234,10.0,16.0,45,0.00,,,0.00,852,Wunderground v.1.15,2013-06-29 20:59:00,
2013-06-29 14:04:00,87.8,63.8,29.69,SW,236,11.0,14.0,45,0.00,,,0.00,846,Wunderground v.1.15,2013-06-29 21:04:00,
2013-06-29 14:09:00,87.6,63.6,29.69,SW,232,12.0,15.0,45,0.00,,,0.00,846,Wunderground v.1.15,2013-06-29 21:09:00,
2013-06-29 14:15:00,87.4,63.5,29.69,WSW,246,11.0,14.0,45,0.00,,,0.00,839,Wunderground v.1.15,2013-06-29 21:15:00,
2013-06-29 14:20:00,87.2,63.9,29.69,SSW,209,11.0,11.0,46,0.00,,,0.00,836,Wunderground v.1.15,2013-06-29 21:20:00,
2013-06-29 14:26:00,87.2,63.9,29.69,WSW,250,10.0,14.0,46,0.00,,,0.00,825,Wunderground v.1.15,2013-06-29 21:26:00,
2013-06-29 14:31:00,87.2,63.9,29.68,WSW,257,10.0,10.0,46,0.00,,,0.00,816,Wunderground v.1.15,2013-06-29 21:31:00,
2013-06-29 14:37:00,87.2,63.9,29.68,SW,216,9.0,13.0,46,0.00,,,0.00,808,Wunderground v.1.15,2013-06-29 21:37:00,
2013-06-29 14:43:00,87.6,63.6,29.68,SSW,205,9.0,13.0,45,0.00,,,0.00,801,Wunderground v.1.15,2013-06-29 21:43:00,
2013-06-29 14:49:00,87.6,63.0,29.68,SW,236,10.0,13.0,44,0.00,,,0.00,794,Wunderground v.1.15,2013-06-29 21:49:00,
2013-06-29 14:55:00,87.8,63.2,29.68,SW,232,11.0,13.0,44,0.00,,,0.00,781,Wunderground v.1.15,2013-06-29 21:55:00,
2013-06-29 15:00:00,88.0,64.0,29.68,West,261,11.0,13.0,45,0.00,,,0.00,767,Wunderground v.1.15,2013-06-29 22:00:00,
2013-06-29 15:06:00,88.2,63.5,29.68,WSW,253,10.0,16.0,44,0.00,,,0.00,758,Wunderground v.1.15,2013-06-29 22:06:00,
2013-06-29 15:12:00,88.2,63.5,29.68,West,270,11.0,11.0,44,0.00,,,0.00,748,Wunderground v.1.15,2013-06-29 22:12:00,
2013-06-29 15:18:00,88.4,63.7,29.67,SW,232,10.0,11.0,44,0.00,,,0.00,735,Wunderground v.1.15,2013-06-29 22:18:00,
2013-06-29 15:24:00,88.4,63.7,29.67,SW,230,10.0,10.0,44,0.00,,,0.00,721,Wunderground v.1.15,2013-06-29 22:24:00,
2013-06-29 15:29:00,88.2,64.2,29.67,WSW,244,10.0,15.0,45,0.00,,,0.00,713,Wunderground v.1.15,2013-06-29 22:29:00,
2013-06-29 15:35:00,88.0,64.0,29.67,SW,220,10.0,13.0,45,0.00,,,0.00,700,Wunderground v.1.15,2013-06-29 22:35:00,
2013-06-29 15:40:00,88.0,63.4,29.67,SW,232,9.0,11.0,44,0.00,,,0.00,690,Wunderground v.1.15,2013-06-29 22:40:00,
2013-06-29 15:45:00,88.0,63.4,29.67,SW,233,9.0,13.0,44,0.00,,,0.00,681,Wunderground v.1.15,2013-06-29 22:45:00,
2013-06-29 15:51:00,88.0,63.4,29.67,WSW,243,9.0,9.0,44,0.00,,,0.00,669,Wunderground v.1.15,2013-06-29 22:51:00,
2013-06-29 15:56:00,88.0,63.4,29.67,WSW,253,9.0,10.0,44,0.00,,,0.00,649,Wunderground v.1.15,2013-06-29 22:56:00,
2013-06-29 16:01:00,88.2,62.9,29.66,SW,229,9.0,14.0,43,0.00,,,0.00,648,Wunderground v.1.15,2013-06-29 23:01:00,
2013-06-29 16:07:00,88.4,63.7,29.66,SW,230,9.0,14.0,44,0.00,,,0.00,633,Wunderground v.1.15,2013-06-29 23:07:00,
2013-06-29 16:13:00,88.4,63.7,29.66,WSW,240,8.0,10.0,44,0.00,,,0.00,619,Wunderground v.1.15,2013-06-29 23:13:00,
2013-06-29 16:18:00,88.6,63.9,29.65,SW,226,9.0,11.0,44,0.00,,,0.00,604,Wunderground v.1.15,2013-06-29 23:18:00,
2013-06-29 16:23:00,88.6,63.2,29.65,SW,236,9.0,15.0,43,0.00,,,0.00,584,Wunderground v.1.15,2013-06-29 23:23:00,
2013-06-29 16:29:00,88.4,63.7,29.65,WSW,239,9.0,15.0,44,0.00,,,0.00,570,Wunderground v.1.15,2013-06-29 23:29:00,
2013-06-29 16:34:00,88.4,63.7,29.65,SW,224,8.0,9.0,44,0.00,,,0.00,558,Wunderground v.1.15,2013-06-29 23:34:00,
2013-06-29 16:39:00,88.2,63.5,29.65,SW,223,8.0,11.0,44,0.00,,,0.00,545,Wunderground v.1.15,2013-06-29 23:39:00,
2013-06-29 16:44:00,88.0,64.0,29.65,SW,230,10.0,11.0,45,0.00,,,0.00,531,Wunderground v.1.15,2013-06-29 23:44:00,
2013-06-29 16:50:00,87.6,64.3,29.65,WSW,251,9.0,9.0,46,0.00,,,0.00,519,Wunderground v.1.15,2013-06-29 23:50:00,
2013-06-29 16:55:00,87.4,64.1,29.65,SW,230,8.0,11.0,46,0.00,,,0.00,500,Wunderground v.1.15,2013-06-29 23:55:00,
2013-06-29 17:01:00,87.0,63.7,29.64,WSW,241,9.0,9.0,46,0.00,,,0.00,484,Wunderground v.1.15,2013-06-30 00:01:00,
2013-06-29 17:06:00,86.7,64.1,29.64,SW,223,9.0,11.0,47,0.00,,,0.00,468,Wunderground v.1.15,2013-06-30 00:06:00,
2013-06-29 17:13:00,86.7,64.1,29.64,WSW,240,8.0,13.0,47,0.00,,,0.00,447,Wunderground v.1.15,2013-06-30 00:13:00,
2013-06-29 17:18:00,86.5,63.9,29.64,West,265,8.0,14.0,47,0.00,,,0.00,429,Wunderground v.1.15,2013-06-30 00:18:00,
2013-06-29 17:23:00,86.3,63.7,29.64,West,265,9.0,13.0,47,0.00,,,0.00,413,Wunderground v.1.15,2013-06-30 00:23:00,
2013-06-29 17:30:00,85.9,63.9,29.64,WSW,250,9.0,9.0,48,0.00,,,0.00,399,Wunderground v.1.15,2013-06-30 00:30:00,
2013-06-29 17:35:00,85.7,63.8,29.64,SW,236,8.0,11.0,48,0.00,,,0.00,382,Wunderground v.1.15,2013-06-30 00:35:00,
2013-06-29 17:40:00,85.7,63.8,29.64,SW,229,8.0,8.0,48,0.00,,,0.00,368,Wunderground v.1.15,2013-06-30 00:40:00,
2013-06-29 17:46:00,85.5,64.2,29.64,WSW,237,8.0,9.0,49,0.00,,,0.00,354,Wunderground v.1.15,2013-06-30 00:46:00,
2013-06-29 17:51:00,85.3,64.0,29.64,WSW,254,7.0,8.0,49,0.00,,,0.00,340,Wunderground v.1.15,2013-06-30 00:51:00,
2013-06-29 17:57:00,85.3,64.0,29.64,SW,230,6.0,8.0,49,0.00,,,0.00,324,Wunderground v.1.15,2013-06-30 00:57:00,
2013-06-29 18:02:00,85.1,63.8,29.63,SW,233,6.0,7.0,49,0.00,,,0.00,308,Wunderground v.1.15,2013-06-30 01:02:00,
2013-06-29 18:08:00,84.9,63.6,29.63,SW,227,7.0,9.0,49,0.00,,,0.00,292,Wunderground v.1.15,2013-06-30 01:08:00,
2013-06-29 18:13:00,84.7,64.0,29.63,WSW,257,7.0,11.0,50,0.00,,,0.00,280,Wunderground v.1.15,2013-06-30 01:13:00,
2013-06-29 18:19:00,84.5,63.8,29.63,West,261,8.0,11.0,50,0.00,,,0.00,264,Wunderground v.1.15,2013-06-30 01:19:00,
2013-06-29 18:25:00,84.1,63.5,29.63,SW,234,8.0,9.0,50,0.00,,,0.00,250,Wunderground v.1.15,2013-06-30 01:25:00,
2013-06-29 18:30:00,84.0,63.9,29.63,West,263,7.0,10.0,51,0.00,,,0.00,223,Wunderground v.1.15,2013-06-30 01:30:00,
2013-06-29 18:36:00,83.8,63.7,29.63,WSW,246,7.0,10.0,51,0.00,,,0.00,113,Wunderground v.1.15,2013-06-30 01:36:00,
2013-06-29 18:43:00,83.4,63.4,29.63,WSW,248,7.0,9.0,51,0.00,,,0.00,70,Wunderground v.1.15,2013-06-30 01:43:00,
2013-06-29 18:48:00,83.2,63.2,29.63,West,261,7.0,10.0,51,0.00,,,0.00,69,Wunderground v.1.15,2013-06-30 01:48:00,
2013-06-29 18:54:00,83.0,63.6,29.63,WSW,247,7.0,8.0,52,0.00,,,0.00,67,Wunderground v.1.15,2013-06-30 01:54:00,
2013-06-29 18:59:00,82.8,63.4,29.63,WSW,251,6.0,8.0,52,0.00,,,0.00,67,Wunderground v.1.15,2013-06-30 01:59:00,
2013-06-29 19:04:00,82.4,63.0,29.64,WSW,253,7.0,7.0,52,0.00,,,0.00,97,Wunderground v.1.15,2013-06-30 02:04:00,
2013-06-29 19:10:00,82.2,63.4,29.64,WSW,251,6.0,6.0,53,0.00,,,0.00,120,Wunderground v.1.15,2013-06-30 02:10:00,
2013-06-29 19:15:00,82.0,63.2,29.64,WSW,248,5.0,9.0,53,0.00,,,0.00,109,Wunderground v.1.15,2013-06-30 02:15:00,
2013-06-29 19:20:00,81.8,63.0,29.64,WSW,250,6.0,6.0,53,0.00,,,0.00,97,Wunderground v.1.15,2013-06-30 02:20:00,
2013-06-29 19:27:00,81.6,63.3,29.64,WSW,250,4.0,7.0,54,0.00,,,0.00,70,Wunderground v.1.15,2013-06-30 02:27:00,
2013-06-29 19:33:00,81.2,63.0,29.64,WSW,250,4.0,6.0,54,0.00,,,0.00,42,Wunderground v.1.15,2013-06-30 02:33:00,
2013-06-29 19:39:00,80.9,62.7,29.64,WSW,250,4.0,6.0,54,0.00,,,0.00,42,Wunderground v.1.15,2013-06-30 02:39:00,
2013-06-29 19:44:00,80.7,63.0,29.64,WSW,250,4.0,4.0,55,0.00,,,0.00,32,Wunderground v.1.15,2013-06-30 02:44:00,
2013-06-29 19:50:00,80.3,62.7,29.64,WSW,250,1.0,1.0,55,0.00,,,0.00,28,Wunderground v.1.15,2013-06-30 02:50:00,
2013-06-29 19:55:00,80.1,63.0,29.64,WSW,250,0.0,2.0,56,0.00,,,0.00,23,Wunderground v.1.15,2013-06-30 02:55:00,
2013-06-29 20:01:00,79.9,62.8,29.64,WSW,250,1.0,1.0,56,0.00,,,0.00,21,Wunderground v.1.15,2013-06-30 03:01:00,
2013-06-29 20:07:00,79.6,63.0,29.64,WSW,250,1.0,1.0,57,0.00,,,0.00,14,Wunderground v.1.15,2013-06-30 03:07:00,
2013-06-29 20:12:00,79.4,62.8,29.64,WSW,250,1.0,4.0,57,0.00,,,0.00,12,Wunderground v.1.15,2013-06-30 03:12:00,
2013-06-29 20:18:00,79.0,63.0,29.64,WSW,250,1.0,4.0,58,0.00,,,0.00,11,Wunderground v.1.15,2013-06-30 03:18:00,
2013-06-29 20:24:00,78.5,62.5,29.64,WSW,250,2.0,7.0,58,0.00,,,0.00,7,Wunderground v.1.15,2013-06-30 03:24:00,
2013-06-29 20:30:00,78.1,62.1,29.64,WSW,250,2.0,7.0,58,0.00,,,0.00,0,Wunderground v.1.15,2013-06-30 03:30:00,
2013-06-29 20:36:00,77.7,62.2,29.64,WSW,250,1.0,6.0,59,0.00,,,0.00,0,Wunderground v.1.15,2013-06-30 03:36:00,
2013-06-29 20:41:00,77.4,61.9,29.64,WSW,250,1.0,1.0,59,0.00,,,0.00,0,Wunderground v.1.15,2013-06-30 03:41:00,
2013-06-29 20:47:00,77.2,62.2,29.64,WSW,250,1.0,2.0,60,0.00,,,0.00,0,Wunderground v.1.15,2013-06-30 03:47:00,
2013-06-29 20:52:00,76.8,61.9,29.64,WSW,250,1.0,1.0,60,0.00,,,0.00,0,Wunderground v.1.15,2013-06-30 03:52:00,
2013-06-29 20:59:00,76.5,61.6,29.64,WSW,250,0.0,1.0,60,0.00,,,0.00,0,Wunderground v.1.15,2013-06-30 03:59:00,
2013-06-29 21:01:00,76.5,62.0,29.64,WSW,250,0.0,0.0,61,0.00,,,0.00,0,Wunderground v.1.15,2013-06-30 04:01:00,
2013-06-29 21:03:00,76.3,61.9,29.64,WSW,250,0.0,0.0,61,0.00,,,0.00,0,Wunderground v.1.15,2013-06-30 04:03:00,
2013-06-29 21:06:00,76.3,61.9,29.64,WSW,250,0.0,0.0,61,0.00,,,0.00,0,Wunderground v.1.15,2013-06-30 04:06:00,
2013-06-29 21:07:00,76.1,61.7,29.64,WSW,250,0.0,0.0,61,0.00,,,0.00,0,Wunderground v.1.15,2013-06-30 04:07:00,
2013-06-29 21:14:00,76.0,61.6,29.64,WSW,250,0.0,0.0,61,0.00,,,0.00,0,Wunderground v.1.15,2013-06-30 04:14:00,
2013-06-29 21:18:00,75.8,61.4,29.64,WSW,250,0.0,0.0,61,0.00,,,0.00,0,Wunderground v.1.15,2013-06-30 04:18:00,
2013-06-29 21:24:00,75.6,61.2,29.64,WSW,250,0.0,0.0,61,0.00,,,0.00,0,Wunderground v.1.15,2013-06-30 04:24:00,
2013-06-29 21:30:00,75.3,61.4,29.64,WSW,250,0.0,0.0,62,0.00,,,0.00,0,Wunderground v.1.15,2013-06-30 04:30:00,
2013-06-29 21:35:00,75.1,61.2,29.64,WSW,250,0.0,0.0,62,0.00,,,0.00,0,Wunderground v.1.15,2013-06-30 04:35:00,
2013-06-29 21:40:00,74.9,61.0,29.64,WSW,250,0.0,0.0,62,0.00,,,0.00,0,Wunderground v.1.15,2013-06-30 04:40:00,
2013-06-29 21:46:00,74.6,60.7,29.64,WSW,250,0.0,0.0,62,0.00,,,0.00,0,Wunderground v.1.15,2013-06-30 04:46:00,
2013-06-29 21:52:00,74.4,61.0,29.64,WSW,250,0.0,0.0,63,0.00,,,0.00,0,Wunderground v.1.15,2013-06-30 04:52:00,
2013-06-29 21:57:00,74.2,60.8,29.64,WSW,250,0.0,0.0,63,0.00,,,0.00,0,Wunderground v.1.15,2013-06-30 04:57:00,
2013-06-29 22:02:00,73.9,60.5,29.63,WSW,250,0.0,0.0,63,0.00,,,0.00,0,Wunderground v.1.15,2013-06-30 05:02:00,
2013-06-29 22:08:00,73.7,60.8,29.63,WSW,250,0.0,0.0,64,0.00,,,0.00,0,Wunderground v.1.15,2013-06-30 05:08:00,
2013-06-29 22:14:00,73.3,60.4,29.63,WSW,250,0.0,0.0,64,0.00,,,0.00,0,Wunderground v.1.15,2013-06-30 05:14:00,
2013-06-29 22:20:00,73.0,60.1,29.63,WSW,250,0.0,0.0,64,0.00,,,0.00,0,Wunderground v.1.15,2013-06-30 05:20:00,
2013-06-29 22:25:00,72.8,60.3,29.63,WSW,250,0.0,0.0,65,0.00,,,0.00,0,Wunderground v.1.15,2013-06-30 05:25:00,
2013-06-29 22:30:00,72.7,60.3,29.63,WSW,250,0.0,0.0,65,0.00,,,0.00,0,Wunderground v.1.15,2013-06-30 05:30:00,
2013-06-29 22:36:00,72.5,60.1,29.63,WSW,250,0.0,0.0,65,0.00,,,0.00,0,Wunderground v.1.15,2013-06-30 05:36:00,
2013-06-29 22:41:00,72.3,59.9,29.63,WSW,250,0.0,0.0,65,0.00,,,0.00,0,Wunderground v.1.15,2013-06-30 05:41:00,
2013-06-29 22:47:00,72.1,59.7,29.63,WSW,250,0.0,0.0,65,0.00,,,0.00,0,Wunderground v.1.15,2013-06-30 05:47:00,
2013-06-29 22:53:00,72.0,60.0,29.63,WSW,250,0.0,0.0,66,0.00,,,0.00,0,Wunderground v.1.15,2013-06-30 05:53:00,
2013-06-29 22:59:00,71.8,59.8,29.63,WSW,250,0.0,0.0,66,0.00,,,0.00,0,Wunderground v.1.15,2013-06-30 05:59:00,
2013-06-29 23:04:00,71.6,60.1,29.64,WSW,250,0.0,2.0,67,0.00,,,0.00,0,Wunderground v.1.15,2013-06-30 06:04:00,
2013-06-29 23:09:00,71.6,60.5,29.64,WSW,250,0.0,2.0,68,0.00,,,0.00,0,Wunderground v.1.15,2013-06-30 06:09:00,
2013-06-29 23:15:00,71.6,60.9,29.64,WSW,250,0.0,6.0,69,0.00,,,0.00,0,Wunderground v.1.15,2013-06-30 06:15:00,
2013-06-29 23:21:00,71.6,61.3,29.63,WSW,250,3.0,4.0,70,0.00,,,0.00,0,Wunderground v.1.15,2013-06-30 06:21:00,
2013-06-29 23:26:00,71.5,61.2,29.63,WSW,250,4.0,6.0,70,0.00,,,0.00,0,Wunderground v.1.15,2013-06-30 06:26:00,
2013-06-29 23:32:00,71.5,61.6,29.64,WSW,250,4.0,4.0,71,0.00,,,0.00,0,Wunderground v.1.15,2013-06-30 06:32:00,
2013-06-29 23:37:00,71.3,61.4,29.64,WSW,250,2.0,4.0,71,0.00,,,0.00,0,Wunderground v.1.15,2013-06-30 06:37:00,
2013-06-29 23:43:00,71.1,61.2,29.64,WSW,250,0.0,1.0,71,0.00,,,0.00,0,Wunderground v.1.15,2013-06-30 06:43:00,
2013-06-29 23:48:00,71.1,61.6,29.64,WSW,250,0.0,1.0,72,0.00,,,0.00,0,Wunderground v.1.15,2013-06-30 06:48:00,
2013-06-29 23:54:00,71.1,61.6,29.64,WSW,250,0.0,0.0,72,0.00,,,0.00,0,Wunderground v.1.15,2013-06-30 06:54:00,